Time;durP1;ratioP1;P1;durP2;ratioP2;P2;SDS_P1;SDS_P2;PMS_P1;PMS_P2;Temp;Humidity;BMP_temperature;BMP_pressure;BME280_temperature;BME280_humidity;BME280_pressure;Samples;Min_cycle;Max_cycle;Signal;HPM_P1;HPM_P2
2023/06/18 00:00:27;;;;;;;14.18;11.38;;;16.30;99.90;;;;;;10320030;28;20272;-89
2023/06/18 00:05:30;;;;;;;11.32;10.25;;;15.90;99.90;;;;;;10344555;28;20259;-88
2023/06/18 00:10:32;;;;;;;10.60;9.35;;;15.70;99.90;;;;;;10355645;28;20722;-88
2023/06/18 00:15:35;;;;;;;12.90;11.60;;;15.90;99.90;;;;;;10348442;28;20769;-88
2023/06/18 00:20:38;;;;;;;13.48;11.55;;;16.20;99.90;;;;;;10351154;28;20272;-88
2023/06/18 00:25:41;;;;;;;13.27;11.88;;;16.10;99.90;;;;;;10345550;28;20251;-88
2023/06/18 00:30:44;;;;;;;10.40;9.40;;;16.10;99.90;;;;;;10367476;28;20623;-88
2023/06/18 00:35:48;;;;;;;9.85;8.95;;;16.20;99.90;;;;;;10366544;28;20689;-88
2023/06/18 00:40:50;;;;;;;12.30;11.20;;;16.20;99.90;;;;;;10343039;28;20248;-87
2023/06/18 00:46:01;;;;;;;10.00;9.00;;;16.20;99.90;;;;;;10369124;28;20241;-89
2023/06/18 00:51:04;;;;;;;9.68;8.68;;;16.40;99.90;;;;;;10347911;28;20267;-87
2023/06/18 00:56:07;;;;;;;9.38;8.48;;;16.60;99.90;;;;;;10366607;28;20271;-87
2023/06/18 01:01:10;;;;;;;9.30;8.40;;;16.50;99.90;;;;;;10355125;28;20256;-89
2023/06/18 01:06:17;;;;;;;9.73;8.73;;;16.50;99.90;;;;;;10349666;28;20248;-88
2023/06/18 01:11:21;;;;;;;14.90;10.50;;;16.70;99.90;;;;;;10349487;28;20243;-88
2023/06/18 01:16:24;;;;;;;10.63;9.52;;;16.60;99.90;;;;;;10368252;28;20267;-88
2023/06/18 01:21:32;;;;;;;11.13;10.07;;;16.10;99.90;;;;;;10348860;28;20217;-88
2023/06/18 01:26:36;;;;;;;12.43;11.13;;;16.20;99.90;;;;;;10351516;28;20287;-88
2023/06/18 01:31:44;;;;;;;10.35;8.45;;;15.90;99.90;;;;;;10344251;28;20220;-88
2023/06/18 01:36:58;;;;;;;12.88;11.57;;;15.80;99.90;;;;;;10333502;28;20356;-89
2023/06/18 01:42:13;;;;;;;12.27;10.70;;;15.30;99.90;;;;;;10368515;28;20609;-89
2023/06/18 01:47:18;;;;;;;12.07;10.52;;;15.10;99.90;;;;;;10368433;28;20243;-88
2023/06/18 01:52:24;;;;;;;15.02;11.63;;;15.00;99.90;;;;;;10351049;28;20255;-89
2023/06/18 01:57:27;;;;;;;13.10;11.73;;;14.80;99.90;;;;;;10353194;28;20268;-88
2023/06/18 02:02:30;;;;;;;12.60;10.10;;;14.40;99.90;;;;;;10334539;28;20262;-88
2023/06/18 02:07:33;;;;;;;11.73;10.52;;;14.30;99.90;;;;;;10328536;28;20240;-88
2023/06/18 02:12:36;;;;;;;13.68;11.65;;;14.40;99.90;;;;;;10355317;28;20240;-87
2023/06/18 02:17:38;;;;;;;12.98;11.75;;;14.10;99.90;;;;;;10338099;28;20762;-88
2023/06/18 02:22:41;;;;;;;16.80;11.80;;;14.00;99.90;;;;;;10360238;28;20240;-89
2023/06/18 02:27:52;;;;;;;16.90;12.50;;;13.90;99.90;;;;;;10329756;28;20677;-87
2023/06/18 02:32:58;;;;;;;12.50;11.10;;;14.00;99.90;;;;;;10369722;28;20212;-88
2023/06/18 02:38:02;;;;;;;11.65;9.80;;;14.00;99.90;;;;;;10335268;28;20271;-89
2023/06/18 02:43:05;;;;;;;10.50;8.85;;;14.00;99.90;;;;;;10370776;28;20244;-89
2023/06/18 02:48:08;;;;;;;10.82;9.73;;;14.30;99.90;;;;;;10336162;28;20314;-88
2023/06/18 02:53:10;;;;;;;12.35;11.23;;;14.70;99.90;;;;;;10367373;28;20629;-88
2023/06/18 02:58:19;;;;;;;16.95;11.90;;;14.70;99.90;;;;;;10347245;28;20229;-88
2023/06/18 03:03:21;;;;;;;15.35;12.38;;;14.50;99.90;;;;;;10327707;28;20244;-87
2023/06/18 03:08:26;;;;;;;19.77;11.20;;;14.30;99.90;;;;;;10333862;28;20679;-87
2023/06/18 03:13:30;;;;;;;9.82;8.93;;;14.30;99.90;;;;;;10323432;28;20289;-89
2023/06/18 03:18:33;;;;;;;9.23;8.02;;;14.50;99.90;;;;;;10349243;28;20267;-88
2023/06/18 03:23:37;;;;;;;10.73;9.63;;;15.00;99.90;;;;;;10334468;28;20213;-88
2023/06/18 03:28:43;;;;;;;8.43;7.70;;;15.20;99.90;;;;;;10351577;28;20232;-89
2023/06/18 03:33:45;;;;;;;13.32;9.73;;;15.10;99.90;;;;;;10362774;28;20201;-90
2023/06/18 03:38:48;;;;;;;12.52;9.88;;;15.40;99.90;;;;;;10350494;28;20275;-89
2023/06/18 03:43:50;;;;;;;12.18;10.98;;;15.30;99.90;;;;;;10304524;28;20688;-88
2023/06/18 03:48:53;;;;;;;12.82;10.73;;;15.20;99.90;;;;;;10347232;28;20216;-87
2023/06/18 03:53:57;;;;;;;12.70;11.45;;;15.20;99.90;;;;;;10333344;28;20291;-88
2023/06/18 03:58:59;;;;;;;9.80;8.93;;;15.30;99.90;;;;;;10324949;28;20758;-87
2023/06/18 04:04:03;;;;;;;11.98;10.68;;;15.40;99.90;;;;;;10342385;28;20286;-87
2023/06/18 04:09:06;;;;;;;10.13;9.13;;;15.80;99.90;;;;;;10363303;28;20243;-87
2023/06/18 04:14:10;;;;;;;11.05;9.95;;;15.80;99.90;;;;;;10348997;28;20209;-88
2023/06/18 04:19:13;;;;;;;12.23;11.00;;;15.90;99.90;;;;;;10365658;28;20685;-88
2023/06/18 04:24:16;;;;;;;11.77;10.57;;;16.20;99.90;;;;;;10345952;28;20260;-88
2023/06/18 04:29:18;;;;;;;11.40;10.30;;;16.40;99.90;;;;;;10333772;28;20240;-89
2023/06/18 04:34:21;;;;;;;14.80;13.35;;;16.50;99.90;;;;;;10342543;28;20244;-88
2023/06/18 04:39:24;;;;;;;11.13;9.05;;;16.70;99.90;;;;;;10338216;28;20318;-88
2023/06/18 04:44:28;;;;;;;13.82;12.27;;;16.70;99.90;;;;;;10335159;28;20332;-88
2023/06/18 04:49:31;;;;;;;15.55;13.95;;;16.90;99.90;;;;;;10313334;28;20303;-88
2023/06/18 04:54:34;;;;;;;12.32;9.73;;;16.90;99.90;;;;;;10309508;28;20671;-89
2023/06/18 04:59:38;;;;;;;14.38;12.48;;;17.00;99.90;;;;;;10310995;28;20260;-88
2023/06/18 05:04:43;;;;;;;10.07;9.07;;;17.30;99.90;;;;;;10310590;28;20213;-89
2023/06/18 05:09:45;;;;;;;14.00;12.65;;;17.40;99.90;;;;;;10310490;28;20217;-88
2023/06/18 05:14:48;;;;;;;15.38;13.38;;;17.50;99.90;;;;;;10325829;28;20213;-88
2023/06/18 05:19:50;;;;;;;12.40;11.20;;;17.60;99.90;;;;;;10311310;28;20685;-88
2023/06/18 05:24:55;;;;;;;12.88;11.57;;;17.90;99.90;;;;;;10325688;28;20213;-88
2023/06/18 05:29:59;;;;;;;11.75;10.60;;;18.30;99.90;;;;;;10316257;28;20562;-89
2023/06/18 05:35:02;;;;;;;17.25;15.40;;;18.50;99.90;;;;;;10347397;28;20232;-88
2023/06/18 05:40:07;;;;;;;12.15;11.05;;;18.70;99.90;;;;;;10358027;28;20275;-89
2023/06/18 05:45:12;;;;;;;13.25;11.95;;;18.70;99.90;;;;;;10337797;28;20271;-89
2023/06/18 05:50:18;;;;;;;13.50;9.07;;;18.70;99.90;;;;;;10325872;28;20670;-89
2023/06/18 05:55:22;;;;;;;11.50;10.30;;;18.70;99.90;;;;;;10353347;28;20236;-88
2023/06/18 06:00:26;;;;;;;18.05;14.35;;;18.80;99.90;;;;;;10356783;28;20208;-88
2023/06/18 06:05:29;;;;;;;10.52;9.57;;;18.90;99.90;;;;;;10336369;28;20288;-89
2023/06/18 06:10:33;;;;;;;12.60;11.07;;;18.90;99.90;;;;;;10319609;28;20290;-88
2023/06/18 06:15:36;;;;;;;6.05;5.55;;;19.00;99.90;;;;;;10355057;28;20200;-88
2023/06/18 06:20:39;;;;;;;6.65;6.07;;;19.10;99.90;;;;;;10337531;28;20244;-89
2023/06/18 06:25:42;;;;;;;10.60;9.60;;;19.20;99.90;;;;;;10316092;28;20240;-88
2023/06/18 06:30:46;;;;;;;13.10;11.75;;;19.40;99.90;;;;;;10315043;28;20233;-88
2023/06/18 06:35:48;;;;;;;13.15;11.85;;;19.50;99.90;;;;;;10325801;28;20288;-87
2023/06/18 06:40:52;;;;;;;10.13;9.05;;;19.60;99.90;;;;;;10335871;28;20262;-88
2023/06/18 06:45:55;;;;;;;10.73;9.65;;;19.70;99.90;;;;;;10348109;28;20260;-89
2023/06/18 06:51:16;;;;;;;9.07;8.07;;;19.80;99.90;;;;;;10352755;28;20272;-89
2023/06/18 06:56:25;;;;;;;13.00;11.70;;;20.00;99.90;;;;;;10315112;28;20261;-88
2023/06/18 07:01:28;;;;;;;11.60;10.50;;;20.20;99.30;;;;;;10319541;28;20240;-88
2023/06/18 07:06:31;;;;;;;9.25;8.32;;;20.30;97.80;;;;;;10329746;28;20256;-89
2023/06/18 07:11:36;;;;;;;11.50;10.40;;;20.30;97.30;;;;;;10313100;28;20220;-88
2023/06/18 07:16:39;;;;;;;12.23;11.00;;;20.50;98.00;;;;;;10338484;28;20268;-88
2023/06/18 07:21:41;;;;;;;14.10;12.60;;;20.80;97.90;;;;;;10327549;28;20311;-89
2023/06/18 07:26:44;;;;;;;13.95;12.65;;;21.00;97.60;;;;;;10313198;28;20545;-90
2023/06/18 07:31:46;;;;;;;13.43;12.13;;;21.00;96.10;;;;;;10330284;28;20271;-89
2023/06/18 07:36:49;;;;;;;13.50;12.20;;;21.00;95.40;;;;;;10330036;28;20625;-87
2023/06/18 07:41:52;;;;;;;12.55;11.35;;;21.20;96.50;;;;;;10329947;28;20294;-89
2023/06/18 07:46:55;;;;;;;13.15;11.95;;;21.40;95.90;;;;;;10311593;28;20232;-90
2023/06/18 07:51:57;;;;;;;9.80;8.73;;;21.50;94.60;;;;;;10329026;28;20236;-89
2023/06/18 07:57:01;;;;;;;6.75;6.15;;;21.80;94.00;;;;;;10329539;28;20264;-89
2023/06/18 08:02:04;;;;;;;6.43;5.82;;;22.20;93.40;;;;;;10329284;28;20354;-88
2023/06/18 08:07:06;;;;;;;7.80;7.10;;;22.50;92.40;;;;;;10352637;28;20301;-89
2023/06/18 08:12:11;;;;;;;8.85;6.43;;;22.90;91.20;;;;;;10370048;28;20236;-88
2023/06/18 08:17:16;;;;;;;8.20;6.72;;;23.20;88.60;;;;;;10352005;28;20294;-88
2023/06/18 08:22:19;;;;;;;9.85;8.70;;;23.50;87.00;;;;;;10352129;28;20664;-88
2023/06/18 08:27:22;;;;;;;7.95;7.15;;;23.90;84.10;;;;;;10369284;28;20201;-88
2023/06/18 08:32:24;;;;;;;5.68;5.03;;;24.30;81.80;;;;;;10347489;28;20236;-90
2023/06/18 08:37:27;;;;;;;7.43;6.78;;;24.40;77.60;;;;;;10350867;28;20691;-91
2023/06/18 08:42:30;;;;;;;7.50;6.90;;;24.40;74.50;;;;;;10335074;28;20213;-87
2023/06/18 08:47:35;;;;;;;7.68;7.00;;;24.10;73.60;;;;;;10353612;28;20310;-89
2023/06/18 08:52:43;;;;;;;6.82;6.22;;;23.90;74.10;;;;;;10336455;28;20302;-88
2023/06/18 08:58:09;;;;;;;7.47;6.85;;;23.80;74.60;;;;;;10335192;28;20342;-88
2023/06/18 09:03:12;;;;;;;9.40;8.55;;;23.70;74.30;;;;;;10357126;28;20212;-88
2023/06/18 09:08:15;;;;;;;8.45;7.75;;;23.60;73.20;;;;;;10351699;28;20240;-88
2023/06/18 09:13:18;;;;;;;7.80;6.82;;;23.50;73.90;;;;;;10359035;28;20208;-88
2023/06/18 09:18:22;;;;;;;10.55;9.52;;;23.50;74.00;;;;;;10375238;28;20341;-93
2023/06/18 09:23:25;;;;;;;6.45;5.85;;;23.50;71.50;;;;;;10371717;28;20705;-88
2023/06/18 09:28:28;;;;;;;7.90;7.20;;;23.70;73.80;;;;;;10320448;28;20197;-89
2023/06/18 09:33:35;;;;;;;8.38;7.65;;;23.80;66.70;;;;;;10318041;28;20213;-88
2023/06/18 09:38:40;;;;;;;7.95;7.25;;;23.80;64.10;;;;;;10323605;28;20260;-88
2023/06/18 09:43:46;;;;;;;8.88;6.80;;;23.70;65.60;;;;;;10373619;28;20240;-89
2023/06/18 09:48:50;;;;;;;7.75;7.13;;;23.70;61.50;;;;;;10375390;28;20259;-89
2023/06/18 09:54:01;;;;;;;5.57;5.07;;;23.70;60.40;;;;;;10319740;28;20228;-89
2023/06/18 09:59:04;;;;;;;9.20;6.80;;;23.60;58.10;;;;;;10334372;28;20272;-88
2023/06/18 10:04:07;;;;;;;8.05;7.22;;;23.50;62.90;;;;;;10332794;28;20213;-88
2023/06/18 10:09:10;;;;;;;13.43;9.20;;;23.30;70.90;;;;;;10365181;28;20278;-88
2023/06/18 10:14:13;;;;;;;9.82;8.70;;;23.20;75.60;;;;;;10370772;28;20252;-89
2023/06/18 10:19:27;;;;;;;11.55;7.75;;;23.00;79.00;;;;;;10355875;28;20715;-88
2023/06/18 10:24:35;;;;;;;8.40;7.20;;;22.90;79.20;;;;;;10299681;28;20248;-89
2023/06/18 10:29:39;;;;;;;9.23;7.70;;;22.80;81.20;;;;;;10348636;28;20216;-89
2023/06/18 10:34:43;;;;;;;8.27;7.50;;;22.90;80.90;;;;;;10356477;28;20212;-88
2023/06/18 10:39:46;;;;;;;8.07;7.28;;;23.00;79.70;;;;;;10372441;28;20641;-89
2023/06/18 10:44:55;;;;;;;8.25;7.45;;;23.00;77.90;;;;;;10370265;28;20244;-90
2023/06/18 10:50:03;;;;;;;7.40;6.80;;;23.10;80.60;;;;;;10333828;28;20264;-89
2023/06/18 10:55:18;;;;;;;16.60;8.95;;;23.20;81.70;;;;;;10313891;28;20212;-89
2023/06/18 11:00:29;;;;;;;8.80;5.57;;;23.30;80.50;;;;;;10336266;28;20792;-90
2023/06/18 11:05:32;;;;;;;7.30;6.63;;;23.50;79.00;;;;;;10303214;28;20226;-89
2023/06/18 11:10:44;;;;;;;6.88;6.28;;;23.70;76.30;;;;;;10289978;28;20245;-92
2023/06/18 11:15:54;;;;;;;6.85;6.25;;;23.90;71.70;;;;;;10301806;28;20236;-92
2023/06/18 11:20:58;;;;;;;7.30;6.70;;;24.00;67.40;;;;;;10355735;28;20271;-91
2023/06/18 11:26:01;;;;;;;6.88;6.00;;;24.10;65.60;;;;;;10353253;28;20541;-91
2023/06/18 11:31:04;;;;;;;7.47;6.03;;;24.20;64.40;;;;;;10366308;28;20696;-92
2023/06/18 11:36:11;;;;;;;6.88;6.22;;;24.20;61.10;;;;;;10347709;28;20664;-90
2023/06/18 11:41:22;;;;;;;8.93;8.05;;;24.30;60.80;;;;;;10329285;28;20276;-88
2023/06/18 11:46:36;;;;;;;6.20;5.53;;;24.40;63.70;;;;;;10329450;28;20260;-88
2023/06/18 11:51:39;;;;;;;6.53;5.93;;;24.60;61.20;;;;;;10344899;28;20374;-88
2023/06/18 11:56:45;;;;;;;6.60;6.00;;;24.70;58.40;;;;;;10352261;28;20344;-88
2023/06/18 12:01:47;;;;;;;6.45;5.85;;;24.70;54.70;;;;;;10369701;28;20212;-88
2023/06/18 12:06:50;;;;;;;6.88;6.28;;;24.70;55.70;;;;;;10313459;28;20256;-88
2023/06/18 12:12:19;;;;;;;6.85;5.97;;;24.80;54.50;;;;;;10357282;28;20378;-89
2023/06/18 12:18:21;;;;;;;6.13;4.55;;;25.00;52.30;;;;;;10350047;28;20258;-89
2023/06/18 12:23:25;;;;;;;6.25;5.75;;;25.00;52.20;;;;;;10243149;28;20737;-90
2023/06/18 12:28:31;;;;;;;5.63;5.13;;;25.00;52.60;;;;;;10224754;28;20668;-89
2023/06/18 12:33:37;;;;;;;6.45;5.90;;;25.00;50.90;;;;;;10215526;29;20258;-89
2023/06/18 12:38:42;;;;;;;5.68;5.18;;;24.80;50.10;;;;;;10249306;28;20269;-90
2023/06/18 12:43:44;;;;;;;5.65;5.15;;;24.90;48.80;;;;;;10235644;29;20273;-88
2023/06/18 12:48:50;;;;;;;6.93;6.28;;;24.70;42.20;;;;;;10248911;29;20242;-90
2023/06/18 12:53:53;;;;;;;7.53;5.85;;;24.70;45.20;;;;;;10249977;28;20294;-90
2023/06/18 12:58:56;;;;;;;5.82;5.35;;;24.70;46.20;;;;;;10323562;28;20264;-90
2023/06/18 13:03:59;;;;;;;6.88;6.28;;;24.80;47.50;;;;;;10365219;28;20236;-89
2023/06/18 13:09:04;;;;;;;6.85;6.25;;;24.60;47.30;;;;;;10339202;28;20295;-90
2023/06/18 13:14:06;;;;;;;6.80;6.20;;;24.30;49.00;;;;;;10340812;28;20257;-89
2023/06/18 13:54:39;;;;;;;14.80;6.18;;;25.10;42.70;;;;;;10341262;28;20660;-95
2023/06/18 14:06:58;;;;;;;8.13;7.05;;;24.90;47.00;;;;;;10352317;28;20189;-95
2023/06/18 14:12:02;;;;;;;16.70;7.57;;;24.80;46.80;;;;;;10323905;28;20232;-95
2023/06/18 14:18:44;;;;;;;18.40;8.32;;;24.90;48.90;;;;;;10341845;28;20208;-94
2023/06/18 14:23:47;;;;;;;13.02;7.38;;;25.00;47.50;;;;;;10327466;28;20213;-96
2023/06/18 14:28:50;;;;;;;15.82;6.10;;;25.30;45.80;;;;;;10364062;28;20205;-94
2023/06/18 14:33:52;;;;;;;4.95;4.55;;;25.30;37.40;;;;;;10325420;28;20205;-96
2023/06/18 14:39:35;;;;;;;8.90;4.57;;;25.30;31.10;;;;;;10341164;28;20695;-95
2023/06/18 14:44:45;;;;;;;7.15;5.65;;;25.20;29.80;;;;;;10321975;28;20267;-95
2023/06/18 14:49:54;;;;;;;5.38;4.90;;;25.40;34.30;;;;;;10322131;28;20209;-96
2023/06/18 14:55:08;;;;;;;13.45;9.35;;;25.00;27.80;;;;;;10321513;28;20213;-95
2023/06/18 15:00:38;;;;;;;5.57;5.07;;;25.00;42.00;;;;;;10321452;28;20229;-95
2023/06/18 15:05:46;;;;;;;4.28;3.95;;;24.60;31.70;;;;;;10325823;28;20255;-95
2023/06/18 15:10:49;;;;;;;3.95;3.55;;;24.40;29.20;;;;;;10337204;28;20209;-96
2023/06/18 15:15:54;;;;;;;4.03;3.72;;;24.30;26.10;;;;;;10320866;28;20256;-95
2023/06/18 15:20:59;;;;;;;6.43;5.82;;;24.20;27.20;;;;;;10336217;28;20564;-94
2023/06/18 15:26:02;;;;;;;6.80;6.10;;;24.00;35.50;;;;;;10319193;28;20730;-95
2023/06/18 15:32:02;;;;;;;8.10;6.85;;;23.80;40.90;;;;;;10320854;28;20209;-94
2023/06/18 15:37:06;;;;;;;5.53;5.03;;;23.70;47.10;;;;;;10295493;28;20240;-93
2023/06/18 15:42:16;;;;;;;7.60;5.18;;;23.60;43.60;;;;;;10300083;28;20218;-96
2023/06/18 15:47:18;;;;;;;5.80;5.20;;;23.20;43.70;;;;;;10324619;28;20201;-93
2023/06/18 16:06:35;;;;;;;9.73;6.03;;;22.90;46.30;;;;;;10267358;28;20549;-89
2023/06/18 16:11:38;;;;;;;5.72;5.25;;;22.90;47.40;;;;;;10250772;28;20578;-89
2023/06/18 16:16:41;;;;;;;6.57;5.88;;;23.00;47.00;;;;;;10253725;28;20207;-93
2023/06/18 16:21:43;;;;;;;5.65;5.18;;;22.90;45.60;;;;;;10284942;28;20242;-93
2023/06/18 16:26:46;;;;;;;5.95;5.45;;;22.90;45.90;;;;;;10251380;28;20286;-93
2023/06/18 16:31:49;;;;;;;5.53;5.03;;;22.80;41.80;;;;;;10213332;29;20266;-92
2023/06/18 16:36:51;;;;;;;6.25;5.18;;;22.80;45.50;;;;;;10214367;29;20275;-94
2023/06/18 16:41:56;;;;;;;5.30;4.90;;;22.70;44.60;;;;;;10228372;29;20223;-95
2023/06/18 16:47:01;;;;;;;5.72;5.10;;;22.50;43.70;;;;;;10215317;29;20215;-94
2023/06/18 16:52:04;;;;;;;5.90;5.40;;;22.40;43.20;;;;;;10214176;28;20588;-93
2023/06/18 16:57:07;;;;;;;5.85;5.35;;;22.30;46.70;;;;;;10280095;28;20567;-93
2023/06/18 17:02:10;;;;;;;8.35;6.15;;;22.20;48.20;;;;;;10295012;28;20222;-94
2023/06/18 17:07:15;;;;;;;6.70;6.13;;;22.10;50.10;;;;;;10310993;28;20214;-91
2023/06/18 17:47:58;;;;;;;9.35;6.38;;;21.20;86.60;;;;;;10312982;28;20181;-93
2023/06/18 17:59:59;;;;;;;18.80;8.30;;;21.20;89.20;;;;;;10298508;28;20569;-92
2023/06/18 18:05:05;;;;;;;10.00;7.93;;;21.30;93.00;;;;;;10301245;28;20271;-95
2023/06/18 18:17:19;;;;;;;6.00;5.50;;;21.50;91.70;;;;;;10312870;28;20180;-93
2023/06/18 18:50:42;;;;;;;20.47;10.83;;;21.70;91.90;;;;;;10311252;28;20434;-95
2023/06/18 19:02:48;;;;;;;14.50;7.95;;;20.90;97.60;;;;;;10337801;23;20261;-87
2023/06/18 19:07:51;;;;;;;16.42;7.07;;;21.20;97.40;;;;;;10288395;28;20280;-85
2023/06/18 19:12:55;;;;;;;15.95;7.95;;;21.30;96.70;;;;;;10275174;28;20266;-84
2023/06/18 19:17:57;;;;;;;8.52;7.65;;;21.20;97.20;;;;;;10248647;29;20246;-84
2023/06/18 19:23:00;;;;;;;10.13;8.18;;;20.40;97.00;;;;;;10283421;28;20944;-84
2023/06/18 19:28:03;;;;;;;7.65;6.68;;;19.40;99.90;;;;;;10271626;28;20229;-84
2023/06/18 19:33:05;;;;;;;9.85;7.25;;;20.30;99.90;;;;;;10287906;28;20249;-84
2023/06/18 19:38:09;;;;;;;9.10;7.20;;;20.40;98.20;;;;;;10294048;28;20326;-84
2023/06/18 19:43:11;;;;;;;22.52;7.63;;;18.80;99.90;;;;;;10287329;28;20715;-85
2023/06/18 19:48:14;;;;;;;9.98;7.80;;;18.00;99.90;;;;;;9939818;28;9999726;-85
2023/06/18 19:53:17;;;;;;;11.00;6.88;;;17.90;99.90;;;;;;10285369;28;20652;-85
2023/06/18 19:58:19;;;;;;;8.85;7.63;;;17.60;99.90;;;;;;10283939;28;20241;-86
2023/06/18 20:03:22;;;;;;;8.60;6.30;;;17.30;99.90;;;;;;10284092;28;20710;-86
2023/06/18 20:08:25;;;;;;;9.70;6.50;;;17.30;99.90;;;;;;10316068;28;20315;-86
2023/06/18 20:13:28;;;;;;;10.02;7.22;;;17.30;99.90;;;;;;10289427;28;20237;-84
2023/06/18 20:18:30;;;;;;;14.73;8.82;;;17.10;99.90;;;;;;10283346;28;20264;-84
2023/06/18 20:23:33;;;;;;;8.70;7.05;;;16.90;99.90;;;;;;10282146;28;20237;-84
2023/06/18 20:28:37;;;;;;;9.52;7.20;;;16.70;99.90;;;;;;10283073;28;20245;-84
2023/06/18 20:33:41;;;;;;;8.18;7.25;;;16.90;99.90;;;;;;10283497;28;20241;-84
2023/06/18 20:38:44;;;;;;;8.98;7.65;;;16.70;99.90;;;;;;10282648;28;20237;-84
2023/06/18 20:43:46;;;;;;;8.48;7.18;;;16.60;99.90;;;;;;10283808;28;20316;-84
2023/06/18 20:48:49;;;;;;;7.68;6.95;;;16.50;99.90;;;;;;10288061;28;20648;-84
2023/06/18 20:53:57;;;;;;;7.90;7.13;;;16.40;99.90;;;;;;10285919;28;20296;-85
2023/06/18 20:58:59;;;;;;;8.45;6.95;;;16.30;99.90;;;;;;10290538;28;20315;-84
2023/06/18 21:04:02;;;;;;;7.28;6.60;;;16.30;99.90;;;;;;10293723;28;20249;-86
2023/06/18 21:09:05;;;;;;;8.70;7.30;;;16.30;99.90;;;;;;10280065;28;20692;-85
2023/06/18 21:14:07;;;;;;;9.30;8.30;;;16.10;99.90;;;;;;10295573;28;20279;-86
2023/06/18 21:19:10;;;;;;;9.43;8.52;;;16.00;99.90;;;;;;10295357;28;20320;-86
2023/06/18 21:24:13;;;;;;;12.73;8.38;;;15.80;99.90;;;;;;10292286;28;20643;-86
2023/06/18 21:29:16;;;;;;;12.05;8.48;;;15.80;99.90;;;;;;10292163;28;20316;-86
2023/06/18 21:34:18;;;;;;;9.77;7.53;;;15.60;99.90;;;;;;10324893;28;20905;-87
2023/06/18 21:39:21;;;;;;;16.38;7.60;;;15.60;99.90;;;;;;10291648;28;20312;-86
2023/06/18 21:44:23;;;;;;;9.70;8.00;;;15.40;99.90;;;;;;10292119;28;20699;-86
2023/06/18 21:49:26;;;;;;;9.27;8.23;;;15.40;99.90;;;;;;10291907;28;20719;-86
2023/06/18 21:54:28;;;;;;;9.60;8.60;;;15.30;99.90;;;;;;10291477;28;20245;-86
2023/06/18 21:59:31;;;;;;;9.98;8.27;;;15.30;99.90;;;;;;10323234;28;20319;-86
2023/06/18 22:04:35;;;;;;;11.55;8.10;;;15.30;99.90;;;;;;10291288;28;20229;-86
2023/06/18 22:09:38;;;;;;;9.38;8.40;;;15.20;99.90;;;;;;10288513;28;20244;-86
2023/06/18 22:14:40;;;;;;;10.07;8.25;;;15.20;99.90;;;;;;10295787;28;20237;-86
2023/06/18 22:19:43;;;;;;;9.10;8.20;;;15.00;99.90;;;;;;10330242;28;20727;-86
2023/06/18 22:24:46;;;;;;;9.23;8.43;;;15.10;99.90;;;;;;10330195;28;20307;-86
2023/06/18 22:29:49;;;;;;;13.43;9.10;;;15.00;99.90;;;;;;10320642;28;20701;-86
2023/06/18 22:34:54;;;;;;;10.13;9.10;;;14.90;99.90;;;;;;10305045;28;20252;-86
2023/06/18 22:39:57;;;;;;;9.85;8.57;;;14.80;99.90;;;;;;10303202;28;20261;-86
2023/06/18 22:45:03;;;;;;;10.70;9.48;;;14.80;99.90;;;;;;10289779;28;20245;-86
2023/06/18 22:50:06;;;;;;;11.40;9.85;;;14.90;99.90;;;;;;10315551;28;20687;-86
2023/06/18 22:55:09;;;;;;;8.30;7.50;;;14.80;99.90;;;;;;10328290;28;20312;-86
2023/06/18 23:00:13;;;;;;;9.68;8.70;;;14.80;99.90;;;;;;10328097;28;20268;-86
2023/06/18 23:05:15;;;;;;;11.85;8.82;;;14.50;99.90;;;;;;10326055;28;20237;-86
2023/06/18 23:10:19;;;;;;;11.25;7.90;;;14.60;99.90;;;;;;10296299;28;20312;-86
2023/06/18 23:15:22;;;;;;;10.05;8.95;;;14.50;99.90;;;;;;10286547;28;20245;-86
2023/06/18 23:20:25;;;;;;;7.93;7.22;;;14.50;99.90;;;;;;10288628;28;20664;-86
2023/06/18 23:25:27;;;;;;;11.63;9.10;;;14.60;99.90;;;;;;10309392;28;20288;-86
2023/06/18 23:30:34;;;;;;;9.55;8.65;;;14.50;99.90;;;;;;10288057;28;20245;-86
2023/06/18 23:35:37;;;;;;;10.32;9.27;;;14.50;99.90;;;;;;10288266;28;20459;-86
2023/06/18 23:40:40;;;;;;;10.05;8.65;;;14.40;99.90;;;;;;10286425;28;20257;-86
2023/06/18 23:45:43;;;;;;;9.23;8.32;;;14.40;99.90;;;;;;10336964;28;20258;-86
2023/06/18 23:50:46;;;;;;;14.77;8.48;;;14.30;99.90;;;;;;10327794;28;20291;-86
2023/06/18 23:55:48;;;;;;;6.97;6.38;;;14.40;99.90;;;;;;10327457;28;20303;-86
